createdAt,value
2019-06-20T00:01:15.945Z,3.07
2019-06-20T00:03:43.259Z,2.97
2019-06-20T00:06:10.551Z,2.80
2019-06-20T00:08:37.862Z,2.10
2019-06-20T00:11:05.543Z,2.80
2019-06-20T00:13:32.894Z,2.90
2019-06-20T00:16:00.202Z,2.30
2019-06-20T00:18:27.447Z,2.10
2019-06-20T00:20:54.697Z,1.87
2019-06-20T00:23:21.954Z,2.20
2019-06-20T00:25:49.246Z,1.97
2019-06-20T00:28:16.616Z,2.10
2019-06-20T00:30:43.979Z,2.27
2019-06-20T00:33:11.246Z,1.90
2019-06-20T00:35:38.499Z,2.97
2019-06-20T00:38:05.724Z,2.10
2019-06-20T00:40:32.980Z,2.83
2019-06-20T00:43:13.417Z,2.43
2019-06-20T00:45:29.239Z,2.50
2019-06-20T00:47:56.492Z,2.20
2019-06-20T00:50:26.655Z,2.30
2019-06-20T00:52:53.883Z,2.20
2019-06-20T00:55:21.125Z,2.53
2019-06-20T00:57:48.338Z,2.10
2019-06-20T01:00:15.982Z,2.10
2019-06-20T01:02:43.289Z,2.60
2019-06-20T01:05:10.570Z,2.97
2019-06-20T01:07:39.059Z,2.40
2019-06-20T01:10:07.012Z,2.13
2019-06-20T01:12:34.245Z,2.60
2019-06-20T01:15:01.468Z,2.50
2019-06-20T01:17:28.700Z,2.50
2019-06-20T01:19:58.289Z,2.23
2019-06-20T01:22:24.952Z,3.03
2019-06-20T01:24:52.197Z,2.90
2019-06-20T01:27:19.434Z,2.40
2019-06-20T01:29:46.671Z,2.53
2019-06-20T01:32:13.911Z,2.50
2019-06-20T01:34:41.208Z,2.00
2019-06-20T01:37:08.520Z,3.27
2019-06-20T01:39:35.799Z,2.23
2019-06-20T01:42:03.093Z,2.80
2019-06-20T01:44:30.319Z,2.63
2019-06-20T01:46:57.565Z,3.73
2019-06-20T01:49:25.158Z,2.93
2019-06-20T01:51:52.383Z,4.00
2019-06-20T01:54:21.994Z,3.70
2019-06-20T01:56:49.216Z,4.40
2019-06-20T01:59:16.435Z,4.50
2019-06-20T02:01:43.765Z,4.60
2019-06-20T02:04:11.347Z,4.13
2019-06-20T02:06:38.571Z,5.20
2019-06-20T02:09:07.329Z,3.07
2019-06-20T02:11:34.573Z,4.20
2019-06-20T02:14:07.163Z,4.40
2019-06-20T02:16:31.768Z,3.70
2019-06-20T02:18:59.036Z,4.30
2019-06-20T02:21:26.247Z,3.80
2019-06-20T02:23:53.488Z,4.83
2019-06-20T02:26:20.768Z,4.40
2019-06-20T02:28:47.992Z,4.37
2019-06-20T02:31:15.255Z,4.53
2019-06-20T02:33:42.557Z,4.20
2019-06-20T02:36:09.776Z,3.77
2019-06-20T02:38:37.008Z,4.30
2019-06-20T02:41:04.376Z,4.27
2019-06-20T02:43:31.628Z,3.33
2019-06-20T02:45:58.841Z,4.23
2019-06-20T02:48:26.081Z,4.77
2019-06-20T02:50:53.401Z,3.90
2019-06-20T02:53:20.637Z,4.10
2019-06-20T02:55:47.861Z,3.30
2019-06-20T02:58:15.091Z,4.20
2019-06-20T03:00:46.681Z,3.53
2019-06-20T03:03:13.928Z,4.17
2019-06-20T03:05:41.187Z,4.13
2019-06-20T03:08:08.432Z,4.10
2019-06-20T03:10:35.681Z,3.67
2019-06-20T03:13:02.980Z,4.90
2019-06-20T03:15:30.205Z,4.57
2019-06-20T03:17:57.497Z,4.60
2019-06-20T03:20:24.700Z,4.53
2019-06-20T03:22:51.963Z,4.37
2019-06-20T03:25:20.174Z,3.37
2019-06-20T03:27:47.408Z,3.77
2019-06-20T03:30:14.696Z,3.67
2019-06-20T03:32:41.936Z,3.90
2019-06-20T03:35:09.330Z,3.87
2019-06-20T03:37:36.619Z,4.43
2019-06-20T03:40:06.918Z,3.90
2019-06-20T03:42:34.222Z,4.07
2019-06-20T03:45:02.817Z,3.73
2019-06-20T03:47:30.080Z,4.33
2019-06-20T03:49:57.633Z,4.17
2019-06-20T03:52:24.887Z,4.80
2019-06-20T03:54:52.134Z,5.47
2019-06-20T03:57:19.356Z,5.27
2019-06-20T03:59:46.655Z,4.30
2019-06-20T04:02:13.921Z,5.33
2019-06-20T04:04:41.215Z,5.00
2019-06-20T04:07:08.428Z,5.13
2019-06-20T04:09:35.672Z,4.90
2019-06-20T04:12:02.866Z,5.03
2019-06-20T04:14:30.123Z,4.50
2019-06-20T04:16:57.341Z,5.17
2019-06-20T04:19:25.158Z,4.23
2019-06-20T04:21:52.424Z,3.37
2019-06-20T04:24:19.669Z,3.73
2019-06-20T04:26:46.928Z,3.53
2019-06-20T04:29:14.234Z,3.60
2019-06-20T04:31:41.439Z,3.70
2019-06-20T04:34:08.688Z,4.27
2019-06-20T04:36:35.999Z,4.20
2019-06-20T04:39:18.346Z,3.30
2019-06-20T04:41:33.637Z,3.80
2019-06-20T04:44:00.878Z,3.60
2019-06-20T04:46:38.396Z,4.00
2019-06-20T04:49:05.668Z,3.60
2019-06-20T04:51:32.952Z,3.53
2019-06-20T04:54:01.124Z,4.37
2019-06-20T04:56:28.366Z,3.93
2019-06-20T04:58:55.658Z,3.77
2019-06-20T05:01:22.961Z,3.53
2019-06-20T05:03:50.213Z,3.50
2019-06-20T05:06:17.580Z,4.33
2019-06-20T05:08:44.857Z,3.20
2019-06-20T05:11:12.069Z,3.43
2019-06-20T05:13:39.423Z,3.50
2019-06-20T05:16:06.671Z,3.00
2019-06-20T05:18:33.897Z,3.67
2019-06-20T05:21:01.157Z,3.20
2019-06-20T05:23:28.406Z,3.30
2019-06-20T05:25:55.794Z,2.30
2019-06-20T05:28:23.082Z,2.70
2019-06-20T05:30:50.320Z,2.50
2019-06-20T05:33:17.539Z,2.27
2019-06-20T05:35:44.779Z,2.07
2019-06-20T05:38:12.019Z,2.57
2019-06-20T05:40:39.255Z,2.00
2019-06-20T05:43:06.728Z,1.90
2019-06-20T05:45:33.961Z,2.33
2019-06-20T05:48:01.200Z,2.57
2019-06-20T05:50:28.440Z,2.80
2019-06-20T05:52:55.722Z,3.10
2019-06-20T05:55:23.038Z,3.40
2019-06-20T05:57:50.294Z,2.73
2019-06-20T06:00:19.097Z,2.40
2019-06-20T06:02:46.340Z,2.33
2019-06-20T06:05:13.758Z,2.20
2019-06-20T06:07:41.067Z,1.60
2019-06-20T06:10:08.590Z,2.30
2019-06-20T06:12:36.366Z,1.97
2019-06-20T06:15:06.422Z,1.93
2019-06-20T06:17:34.641Z,1.80
2019-06-20T06:20:11.937Z,2.00
2019-06-20T06:22:39.942Z,1.60
2019-06-20T06:25:07.244Z,1.73
2019-06-20T06:27:34.455Z,2.07
2019-06-20T06:30:01.954Z,1.60
2019-06-20T06:32:39.621Z,2.87
2019-06-20T06:34:58.251Z,1.67
2019-06-20T06:37:25.467Z,1.87
2019-06-20T06:39:52.698Z,1.87
2019-06-20T06:42:20.184Z,1.60
2019-06-20T06:44:47.411Z,1.23
2019-06-20T06:47:14.648Z,2.47
2019-06-20T06:49:41.867Z,1.73
2019-06-20T06:52:09.104Z,1.67
2019-06-20T06:54:36.303Z,1.60
2019-06-20T06:57:03.554Z,1.50
2019-06-20T06:59:30.825Z,1.53
2019-06-20T07:01:58.057Z,1.73
2019-06-20T07:04:25.270Z,1.27
2019-06-20T07:06:52.487Z,2.27
2019-06-20T07:09:19.712Z,1.60
2019-06-20T07:11:46.999Z,1.47
2019-06-20T07:14:14.221Z,2.10
2019-06-20T07:16:41.450Z,1.80
2019-06-20T07:19:08.669Z,1.90
2019-06-20T07:21:35.983Z,1.70
2019-06-20T07:24:03.201Z,1.67
2019-06-20T07:26:30.427Z,1.87
2019-06-20T07:28:57.644Z,1.90
2019-06-20T07:31:24.867Z,1.57
2019-06-20T07:33:52.143Z,1.60
2019-06-20T07:36:19.370Z,1.80
2019-06-20T07:38:46.594Z,1.90
2019-06-20T07:41:14.498Z,2.43
2019-06-20T07:43:42.384Z,2.10
2019-06-20T07:46:09.709Z,1.53
2019-06-20T07:48:36.920Z,1.50
2019-06-20T07:51:04.153Z,2.00
2019-06-20T07:53:31.374Z,2.37
2019-06-20T07:55:58.652Z,1.43
2019-06-20T07:58:25.882Z,1.97
2019-06-20T08:00:53.172Z,1.60
2019-06-20T08:03:20.391Z,1.70
2019-06-20T08:05:47.624Z,1.77
2019-06-20T08:08:14.859Z,1.93
2019-06-20T08:10:42.071Z,1.60
2019-06-20T08:13:09.645Z,1.93
2019-06-20T08:15:36.972Z,2.00
2019-06-20T08:18:04.479Z,2.10
2019-06-20T08:20:31.703Z,2.17
2019-06-20T08:22:58.933Z,2.07
2019-06-20T08:25:26.371Z,1.80
2019-06-20T08:27:53.743Z,1.90
2019-06-20T08:30:25.080Z,2.57
2019-06-20T08:32:52.424Z,1.90
2019-06-20T08:35:21.254Z,1.80
2019-06-20T08:37:48.467Z,1.93
2019-06-20T08:40:15.754Z,1.70
2019-06-20T08:42:42.978Z,2.20
2019-06-20T08:45:10.277Z,1.73
2019-06-20T08:47:37.620Z,2.00
2019-06-20T08:50:08.209Z,1.87
2019-06-20T08:52:35.444Z,1.57
2019-06-20T08:55:03.423Z,1.67
2019-06-20T08:57:30.640Z,2.03
2019-06-20T08:59:58.881Z,2.23
2019-06-20T09:02:26.372Z,1.93
2019-06-20T09:04:55.198Z,2.23
2019-06-20T09:07:22.545Z,2.27
2019-06-20T09:09:50.093Z,1.80
2019-06-20T09:12:17.371Z,1.90
2019-06-20T09:14:44.850Z,1.67
2019-06-20T09:17:12.745Z,2.03
2019-06-20T09:19:40.079Z,2.47
2019-06-20T09:22:07.480Z,1.87
2019-06-20T09:24:34.696Z,1.80
2019-06-20T09:27:01.915Z,1.60
2019-06-20T09:29:41.078Z,1.30
2019-06-20T09:31:58.573Z,1.70
2019-06-20T09:34:25.957Z,2.17
2019-06-20T09:36:53.672Z,1.50
2019-06-20T09:39:21.385Z,1.90
2019-06-20T09:41:48.608Z,1.70
2019-06-20T09:44:15.823Z,2.43
2019-06-20T09:46:43.056Z,2.37
2019-06-20T09:49:10.280Z,2.23
2019-06-20T09:51:37.507Z,2.07
2019-06-20T09:54:05.006Z,2.00
2019-06-20T09:56:32.235Z,2.00
2019-06-20T09:58:59.444Z,2.60
2019-06-20T10:01:26.682Z,2.30
2019-06-20T10:03:54.759Z,2.30
2019-06-20T10:06:22.143Z,2.60
2019-06-20T10:08:50.079Z,1.93
2019-06-20T10:11:17.498Z,2.47
2019-06-20T10:13:48.167Z,2.57
2019-06-20T10:16:15.512Z,2.07
2019-06-20T10:18:42.745Z,2.37
2019-06-20T10:21:09.959Z,2.33
2019-06-20T10:23:37.201Z,2.17
2019-06-20T10:26:04.503Z,2.33
2019-06-20T10:28:31.748Z,2.50
2019-06-20T10:30:58.951Z,2.37
2019-06-20T10:33:26.178Z,1.77
2019-06-20T10:35:53.397Z,2.20
2019-06-20T10:38:20.615Z,2.10
2019-06-20T10:40:48.018Z,2.33
2019-06-20T10:43:15.339Z,1.80
2019-06-20T10:45:44.045Z,2.50
2019-06-20T10:48:11.600Z,2.30
2019-06-20T10:50:38.825Z,5.10
2019-06-20T10:53:06.046Z,3.50
2019-06-20T10:55:33.276Z,2.80
2019-06-20T10:58:01.257Z,2.47
2019-06-20T11:00:31.844Z,2.50
2019-06-20T11:02:58.367Z,2.10
2019-06-20T11:05:25.670Z,2.30
2019-06-20T11:07:52.891Z,2.57
2019-06-20T11:10:21.661Z,2.33
2019-06-20T11:12:54.907Z,2.70
2019-06-20T11:15:18.300Z,2.17
2019-06-20T11:17:46.304Z,2.67
2019-06-20T11:20:13.984Z,2.53
2019-06-20T11:22:41.631Z,2.47
2019-06-20T11:25:09.294Z,2.43
2019-06-20T11:27:37.680Z,2.63
2019-06-20T11:30:09.916Z,1.97
2019-06-20T11:32:38.333Z,2.40
2019-06-20T11:35:06.708Z,2.40
2019-06-20T11:37:35.044Z,3.33
2019-06-20T11:40:04.517Z,3.40
2019-06-20T11:42:31.741Z,3.47
2019-06-20T11:44:58.966Z,2.73
2019-06-20T11:47:26.188Z,2.23
2019-06-20T11:49:53.477Z,2.40
2019-06-20T11:52:20.687Z,3.10
2019-06-20T11:54:47.915Z,1.80
2019-06-20T11:57:15.143Z,2.00
2019-06-20T11:59:42.364Z,2.20
2019-06-20T12:02:09.885Z,1.77
2019-06-20T12:04:38.263Z,2.10
2019-06-20T12:07:06.136Z,2.60
2019-06-20T12:09:36.464Z,2.00
2019-06-20T12:12:02.641Z,1.97
2019-06-20T12:14:29.856Z,2.57
2019-06-20T12:16:57.072Z,2.63
2019-06-20T12:19:24.320Z,2.60
2019-06-20T12:21:51.539Z,2.47
2019-06-20T12:24:18.757Z,2.40
2019-06-20T12:26:46.836Z,2.57
2019-06-20T12:29:14.248Z,1.70
2019-06-20T12:31:42.987Z,2.53
2019-06-20T12:34:10.359Z,2.53
2019-06-20T12:36:38.107Z,2.70
2019-06-20T12:39:06.553Z,2.73
2019-06-20T12:41:33.779Z,2.47
2019-06-20T12:44:01.009Z,2.70
2019-06-20T12:46:29.195Z,2.80
2019-06-20T12:48:56.406Z,2.23
2019-06-20T12:51:23.706Z,2.77
2019-06-20T12:53:50.982Z,2.80
2019-06-20T12:56:18.226Z,2.40
2019-06-20T12:58:46.694Z,2.60
2019-06-20T13:01:14.039Z,3.07
2019-06-20T13:03:41.251Z,2.53
2019-06-20T13:06:08.485Z,3.23
2019-06-20T13:08:35.699Z,2.63
2019-06-20T13:11:03.196Z,3.03
2019-06-20T13:13:30.413Z,3.00
2019-06-20T13:15:57.662Z,3.20
2019-06-20T13:18:24.879Z,2.37
2019-06-20T13:20:52.100Z,2.10
2019-06-20T13:23:19.331Z,3.40
2019-06-20T13:25:46.804Z,1.90
2019-06-20T13:28:14.303Z,2.40
2019-06-20T13:30:43.797Z,1.87
2019-06-20T13:33:10.580Z,1.60
2019-06-20T13:35:39.974Z,1.90
2019-06-20T13:38:06.771Z,1.90
2019-06-20T13:40:34.022Z,1.87
2019-06-20T13:43:01.261Z,1.17
2019-06-20T13:45:28.475Z,1.90
2019-06-20T13:47:55.703Z,1.50
2019-06-20T13:50:23.493Z,1.50
2019-06-20T13:52:51.298Z,2.03
2019-06-20T13:55:18.796Z,2.00
2019-06-20T13:57:47.199Z,1.47
2019-06-20T14:00:15.800Z,1.37
2019-06-20T14:02:45.017Z,1.77
2019-06-20T14:05:12.300Z,1.70
2019-06-20T14:07:43.498Z,3.43
2019-06-20T14:10:08.557Z,4.27
2019-06-20T14:12:35.812Z,2.40
2019-06-20T14:15:04.194Z,1.70
2019-06-20T14:17:31.429Z,2.20
2019-06-20T14:19:58.645Z,2.10
2019-06-20T14:22:25.864Z,1.87
2019-06-20T14:24:53.674Z,1.50
2019-06-20T14:27:21.187Z,1.97
2019-06-20T14:29:49.130Z,1.80
2019-06-20T14:32:22.170Z,1.87
2019-06-20T14:34:47.199Z,1.97
2019-06-20T14:37:14.616Z,1.43
2019-06-20T14:39:41.827Z,1.67
2019-06-20T14:42:09.059Z,1.67
2019-06-20T14:44:36.283Z,1.50
2019-06-20T14:47:03.511Z,1.47
2019-06-20T14:49:30.724Z,1.73
2019-06-20T14:51:58.045Z,2.07
2019-06-20T14:54:25.489Z,1.90
2019-06-20T14:56:53.919Z,1.80
2019-06-20T14:59:21.374Z,1.40
2019-06-20T15:01:48.660Z,1.53
2019-06-20T15:04:15.875Z,1.70
2019-06-20T15:06:44.947Z,1.87
2019-06-20T15:09:12.104Z,1.60
2019-06-20T15:11:39.329Z,1.77
2019-06-20T15:14:06.560Z,1.80
2019-06-20T15:16:33.772Z,1.93
2019-06-20T15:19:00.999Z,2.03
2019-06-20T15:21:28.230Z,1.50
2019-06-20T15:23:56.686Z,1.47
2019-06-20T15:26:23.939Z,1.43
2019-06-20T15:28:52.969Z,1.60
2019-06-20T15:31:20.136Z,1.47
2019-06-20T15:33:47.895Z,1.43
2019-06-20T15:36:16.390Z,1.40
2019-06-20T15:38:43.734Z,3.23
2019-06-20T15:41:12.497Z,1.90
2019-06-20T15:43:39.951Z,2.00
2019-06-20T15:46:07.178Z,1.90
2019-06-20T15:48:34.481Z,1.57
2019-06-20T15:51:01.695Z,1.83
2019-06-20T15:53:28.936Z,1.67
2019-06-20T15:55:56.159Z,1.40
2019-06-20T15:58:23.368Z,1.63
2019-06-20T16:00:50.586Z,1.60
2019-06-20T16:03:18.800Z,1.67
2019-06-20T16:05:46.075Z,2.03
2019-06-20T16:08:13.395Z,2.30
2019-06-20T16:10:40.712Z,2.10
2019-06-20T16:13:07.940Z,2.60
2019-06-20T16:15:35.157Z,2.30
2019-06-20T16:18:02.608Z,2.20
2019-06-20T16:20:29.936Z,1.83
2019-06-20T16:22:57.167Z,1.53
2019-06-20T16:25:24.388Z,1.90
2019-06-20T16:27:51.992Z,2.50
2019-06-20T16:30:19.475Z,2.30
2019-06-20T16:32:46.703Z,1.87
2019-06-20T16:35:14.900Z,2.57
2019-06-20T16:37:42.118Z,2.40
2019-06-20T16:40:10.528Z,2.17
2019-06-20T16:42:38.021Z,2.07
2019-06-20T16:45:06.787Z,1.40
2019-06-20T16:47:34.193Z,1.73
2019-06-20T16:50:01.419Z,1.97
2019-06-20T16:52:28.749Z,2.00
2019-06-20T16:54:55.969Z,1.93
2019-06-20T16:57:23.188Z,2.00
2019-06-20T16:59:50.425Z,2.23
2019-06-20T17:02:17.641Z,1.60
2019-06-20T17:04:44.862Z,2.13
2019-06-20T17:07:12.079Z,1.40
2019-06-20T17:09:39.306Z,1.80
2019-06-20T17:12:06.519Z,1.43
2019-06-20T17:14:33.751Z,1.73
2019-06-20T17:17:00.972Z,1.80
2019-06-20T17:19:28.223Z,1.90
2019-06-20T17:21:55.440Z,2.83
2019-06-20T17:24:22.683Z,1.67
2019-06-20T17:26:49.897Z,1.97
2019-06-20T17:29:17.128Z,1.60
2019-06-20T17:31:44.361Z,1.90
2019-06-20T17:34:11.589Z,1.60
2019-06-20T17:36:38.822Z,1.90
2019-06-20T17:39:07.098Z,1.67
2019-06-20T17:41:34.306Z,2.40
2019-06-20T17:44:01.684Z,2.90
2019-06-20T17:46:29.268Z,2.23
2019-06-20T17:48:57.081Z,2.63
2019-06-20T17:51:24.369Z,3.80
2019-06-20T17:53:52.211Z,2.10
2019-06-20T17:56:19.600Z,2.17
2019-06-20T17:58:46.975Z,2.20
2019-06-20T18:01:14.399Z,2.40
2019-06-20T18:03:42.684Z,1.90
2019-06-20T18:06:09.986Z,1.60
2019-06-20T18:08:37.207Z,5.10
2019-06-20T18:11:04.454Z,2.00
2019-06-20T18:13:31.672Z,1.80
2019-06-20T18:15:58.959Z,1.70
2019-06-20T18:18:26.276Z,2.40
2019-06-20T18:20:53.670Z,1.83
2019-06-20T18:23:20.980Z,1.10
2019-06-20T18:25:49.958Z,1.17
2019-06-20T18:28:17.201Z,1.37
2019-06-20T18:30:44.944Z,1.70
2019-06-20T18:33:12.208Z,1.37
2019-06-20T18:35:44.665Z,1.50
2019-06-20T18:38:12.052Z,1.83
2019-06-20T18:40:39.502Z,1.40
2019-06-20T18:43:06.770Z,1.43
2019-06-20T18:45:34.195Z,1.07
2019-06-20T18:48:01.420Z,1.63
2019-06-20T18:50:28.800Z,1.17
2019-06-20T18:52:56.132Z,1.50
2019-06-20T18:55:23.489Z,1.37
2019-06-20T18:57:50.778Z,1.33
2019-06-20T19:00:33.664Z,1.50
2019-06-20T19:02:47.526Z,1.53
2019-06-20T19:05:14.885Z,1.47
2019-06-20T19:07:43.118Z,1.40
2019-06-20T19:10:10.540Z,1.43
2019-06-20T19:12:37.834Z,1.73
2019-06-20T19:15:06.386Z,1.03
2019-06-20T19:17:33.620Z,1.50
2019-06-20T19:20:00.923Z,1.60
2019-06-20T19:22:28.172Z,1.23
2019-06-20T19:24:55.474Z,1.20
2019-06-20T19:27:22.770Z,1.20
2019-06-20T19:29:50.025Z,1.67
2019-06-20T19:32:17.363Z,1.20
2019-06-20T19:34:44.703Z,1.20
2019-06-20T19:37:12.017Z,1.23
2019-06-20T19:39:39.262Z,1.37
2019-06-20T19:42:06.608Z,1.37
2019-06-20T19:44:33.841Z,1.10
2019-06-20T19:47:01.116Z,0.80
2019-06-20T19:49:28.419Z,1.50
2019-06-20T19:51:55.765Z,1.13
2019-06-20T19:54:23.097Z,1.20
2019-06-20T19:56:50.394Z,1.33
2019-06-20T19:59:17.709Z,1.00
2019-06-20T20:01:45.187Z,1.30
2019-06-20T20:04:12.482Z,1.23
2019-06-20T20:06:39.745Z,1.40
2019-06-20T20:09:07.039Z,1.57
2019-06-20T20:11:34.281Z,1.30
2019-06-20T20:14:01.655Z,1.43
2019-06-20T20:16:28.949Z,1.70
2019-06-20T20:18:56.262Z,1.30
2019-06-20T20:21:23.529Z,1.20
2019-06-20T20:23:50.773Z,1.10
2019-06-20T20:26:18.489Z,1.13
2019-06-20T20:28:45.755Z,1.37
2019-06-20T20:31:13.037Z,1.60
2019-06-20T20:33:40.279Z,1.13
2019-06-20T20:36:23.997Z,1.30
2019-06-20T20:38:38.462Z,1.10
2019-06-20T20:41:05.748Z,1.17
2019-06-20T20:43:32.993Z,1.20
2019-06-20T20:46:00.231Z,1.27
2019-06-20T20:48:27.515Z,1.67
2019-06-20T20:50:54.745Z,1.30
2019-06-20T20:53:21.964Z,1.30
2019-06-20T20:55:49.274Z,1.43
2019-06-20T20:58:16.503Z,1.30
2019-06-20T21:00:45.282Z,1.30
2019-06-20T21:03:13.765Z,1.03
2019-06-20T21:05:51.062Z,1.27
2019-06-20T21:08:10.001Z,1.23
2019-06-20T21:10:37.230Z,1.20
2019-06-20T21:13:04.456Z,1.10
2019-06-20T21:15:31.672Z,1.57
2019-06-20T21:17:59.015Z,1.17
2019-06-20T21:20:26.300Z,1.27
2019-06-20T21:22:53.938Z,1.20
2019-06-20T21:25:21.195Z,1.47
2019-06-20T21:27:48.551Z,1.53
2019-06-20T21:30:16.113Z,1.37
2019-06-20T21:32:44.168Z,2.20
2019-06-20T21:35:11.775Z,1.40
2019-06-20T21:37:39.070Z,1.67
2019-06-20T21:40:06.580Z,1.30
2019-06-20T21:42:33.860Z,1.33
2019-06-20T21:45:01.115Z,1.23
2019-06-20T21:47:28.382Z,1.70
2019-06-20T21:49:55.606Z,1.40
2019-06-20T21:52:22.860Z,1.30
2019-06-20T21:54:50.079Z,1.30
2019-06-20T21:57:17.338Z,1.60
2019-06-20T21:59:44.575Z,1.43
2019-06-20T22:02:14.125Z,1.80
2019-06-20T22:04:53.741Z,1.80
2019-06-20T22:07:10.652Z,1.40
2019-06-20T22:09:38.104Z,1.27
2019-06-20T22:12:07.423Z,1.23
2019-06-20T22:14:34.650Z,1.70
2019-06-20T22:17:02.201Z,1.67
2019-06-20T22:19:39.116Z,1.63
2019-06-20T22:22:06.512Z,1.30
2019-06-20T22:24:33.827Z,1.20
2019-06-20T22:27:01.190Z,1.33
2019-06-20T22:29:28.502Z,2.07
2019-06-20T22:31:55.851Z,1.93
2019-06-20T22:34:25.157Z,1.60
2019-06-20T22:36:54.035Z,1.80
2019-06-20T22:39:21.395Z,1.33
2019-06-20T22:41:48.601Z,1.53
2019-06-20T22:44:16.462Z,1.73
2019-06-20T22:46:43.704Z,1.77
2019-06-20T22:49:10.919Z,2.00
2019-06-20T22:51:38.144Z,1.70
2019-06-20T22:54:05.365Z,1.60
2019-06-20T22:56:34.205Z,1.80
2019-06-20T22:59:01.425Z,1.80
2019-06-20T23:01:28.641Z,2.00
2019-06-20T23:03:55.939Z,1.40
2019-06-20T23:06:23.152Z,1.50
2019-06-20T23:08:50.441Z,1.70
2019-06-20T23:11:17.659Z,1.63
2019-06-20T23:13:45.229Z,1.97
2019-06-20T23:16:13.336Z,2.00
2019-06-20T23:18:40.702Z,1.93
2019-06-20T23:21:23.198Z,1.63
2019-06-20T23:23:51.009Z,1.70
2019-06-20T23:26:18.304Z,1.87
2019-06-20T23:28:48.700Z,1.33
2019-06-20T23:31:15.910Z,1.63
2019-06-20T23:33:44.999Z,1.83
2019-06-20T23:36:12.956Z,2.50
2019-06-20T23:38:41.107Z,1.90
2019-06-20T23:41:08.324Z,1.70
2019-06-20T23:43:35.572Z,1.40
2019-06-20T23:46:04.200Z,1.47
2019-06-20T23:48:31.461Z,1.60
2019-06-20T23:50:58.684Z,1.27
2019-06-20T23:53:27.993Z,1.97
2019-06-20T23:55:55.335Z,1.63
2019-06-20T23:58:23.615Z,1.60
